createdAt,value
2019-03-26T00:00:58.593Z,11.10
2019-03-26T00:03:28.757Z,8.53
2019-03-26T00:05:58.902Z,11.83
2019-03-26T00:08:29.086Z,9.67
2019-03-26T00:10:59.210Z,10.30
2019-03-26T00:13:29.400Z,8.23
2019-03-26T00:15:59.704Z,8.63
2019-03-26T00:18:29.853Z,15.33
2019-03-26T00:20:59.964Z,7.80
2019-03-26T00:23:30.388Z,4.80
2019-03-26T00:26:00.603Z,9.83
2019-03-26T00:28:30.797Z,8.70
2019-03-26T00:31:02.630Z,6.10
2019-03-26T00:33:36.628Z,9.30
2019-03-26T00:36:04.872Z,10.93
2019-03-26T00:38:35.709Z,8.77
2019-03-26T00:41:07.640Z,9.60
2019-03-26T00:43:37.817Z,10.73
2019-03-26T00:46:08.071Z,8.00
2019-03-26T00:48:38.220Z,9.07
2019-03-26T00:51:08.396Z,10.10
2019-03-26T00:53:38.676Z,10.43
2019-03-26T00:56:08.809Z,10.50
2019-03-26T00:58:39.358Z,9.10
2019-03-26T01:01:10.036Z,8.63
2019-03-26T01:03:40.323Z,9.67
2019-03-26T01:06:10.696Z,8.30
2019-03-26T01:08:41.170Z,9.40
2019-03-26T01:11:12.063Z,6.13
2019-03-26T01:13:42.314Z,7.60
2019-03-26T01:16:12.533Z,7.50
2019-03-26T01:18:42.804Z,6.63
2019-03-26T01:21:13.064Z,7.87
2019-03-26T01:23:43.214Z,11.53
2019-03-26T01:26:13.377Z,9.40
2019-03-26T01:28:43.636Z,11.57
2019-03-26T01:31:14.048Z,10.43
2019-03-26T01:33:44.200Z,4.83
2019-03-26T01:36:14.490Z,6.33
2019-03-26T01:38:44.625Z,10.10
2019-03-26T01:41:14.826Z,7.53
2019-03-26T01:43:44.981Z,10.07
2019-03-26T01:46:15.166Z,8.40
2019-03-26T01:48:45.348Z,9.90
2019-03-26T01:51:15.559Z,8.63
2019-03-26T01:53:45.707Z,11.80
2019-03-26T01:56:15.880Z,9.60
2019-03-26T01:58:46.013Z,8.87
2019-03-26T02:01:16.402Z,7.03
2019-03-26T02:03:46.526Z,12.43
2019-03-26T02:06:16.666Z,16.37
2019-03-26T02:08:47.089Z,8.07
2019-03-26T04:40:06.126Z,14.07
2019-03-26T04:42:36.679Z,12.60
2019-03-26T04:45:07.513Z,11.83
2019-03-26T04:47:37.637Z,12.30
2019-03-26T04:50:07.852Z,13.87
2019-03-26T04:52:40.170Z,10.90
2019-03-26T04:55:11.576Z,8.03
2019-03-26T04:57:42.667Z,16.43
2019-03-26T05:00:13.600Z,15.50
2019-03-26T05:02:43.732Z,10.50
2019-03-26T05:05:13.982Z,5.07
2019-03-26T05:07:44.167Z,13.83
2019-03-26T05:10:14.550Z,10.03
2019-03-26T05:12:45.060Z,9.60
2019-03-26T05:15:15.465Z,10.13
2019-03-26T05:17:45.780Z,17.23
2019-03-26T05:20:16.218Z,8.93
2019-03-26T05:22:46.546Z,12.03
2019-03-26T05:25:16.909Z,9.87
2019-03-26T05:27:47.440Z,12.53
2019-03-26T05:30:17.827Z,13.10
2019-03-26T05:32:48.150Z,6.33
2019-03-26T05:35:18.586Z,7.77
2019-03-26T05:37:48.749Z,7.53
2019-03-26T05:40:18.912Z,14.60
2019-03-26T05:42:49.185Z,9.97
2019-03-26T05:45:19.324Z,6.80
2019-03-26T05:47:49.690Z,7.37
2019-03-26T05:50:19.922Z,8.17
2019-03-26T05:52:50.169Z,7.30
2019-03-26T05:55:20.576Z,7.40
2019-03-26T05:57:51.118Z,9.07
2019-03-26T06:00:26.544Z,7.67
2019-03-26T06:02:56.798Z,6.50
2019-03-26T06:05:26.954Z,4.23
2019-03-26T06:07:57.239Z,7.30
2019-03-26T06:10:27.497Z,8.10
2019-03-26T06:12:58.508Z,9.23
2019-03-26T06:15:30.549Z,7.53
2019-03-26T06:18:00.868Z,4.90
2019-03-26T06:20:31.144Z,8.60
2019-03-26T06:23:01.382Z,5.20
2019-03-26T06:25:31.557Z,6.13
2019-03-26T06:28:01.760Z,6.13
2019-03-26T06:30:32.363Z,4.87
2019-03-26T06:33:02.553Z,5.90
2019-03-26T06:35:33.308Z,5.70
2019-03-26T06:38:03.689Z,6.50
2019-03-26T06:40:33.906Z,7.80
2019-03-26T06:43:04.192Z,6.63
2019-03-26T06:45:34.819Z,7.83
2019-03-26T06:48:05.845Z,5.20
2019-03-26T06:50:36.175Z,7.73
2019-03-26T06:53:06.619Z,5.30
2019-03-26T06:55:37.001Z,14.60
2019-03-26T06:58:07.328Z,11.70
2019-03-26T07:00:37.693Z,13.67
2019-03-26T07:03:08.427Z,8.10
2019-03-26T07:05:39.016Z,8.43
2019-03-26T07:08:09.346Z,6.30
2019-03-26T07:10:39.686Z,7.90
2019-03-26T07:13:10.365Z,8.13
2019-03-26T07:15:40.966Z,8.23
2019-03-26T07:18:11.322Z,10.73
2019-03-26T07:20:41.750Z,10.33
2019-03-26T07:23:12.184Z,10.50
2019-03-26T07:25:42.419Z,7.73
2019-03-26T07:28:12.751Z,13.00
2019-03-26T07:30:44.411Z,7.73
2019-03-26T07:33:14.817Z,5.77
2019-03-26T07:35:45.121Z,7.13
2019-03-26T07:38:15.350Z,5.17
2019-03-26T07:40:45.659Z,10.50
2019-03-26T07:43:15.904Z,8.37
2019-03-26T07:45:46.079Z,7.17
2019-03-26T07:48:16.308Z,4.90
2019-03-26T07:50:46.446Z,6.90
2019-03-26T07:53:16.931Z,6.83
2019-03-26T07:55:47.295Z,7.43
2019-03-26T07:58:17.585Z,9.87
2019-03-26T08:00:47.880Z,11.20
2019-03-26T08:03:21.174Z,12.20
2019-03-26T08:05:50.747Z,11.83
2019-03-26T08:08:20.877Z,8.40
2019-03-26T08:10:51.439Z,6.17
2019-03-26T08:13:22.718Z,17.20
2019-03-26T08:15:52.888Z,6.10
2019-03-26T08:18:23.277Z,12.07
2019-03-26T08:20:57.530Z,11.43
2019-03-26T08:23:27.003Z,8.80
2019-03-26T08:25:57.471Z,14.63
2019-03-26T08:28:27.708Z,8.90
2019-03-26T08:30:58.260Z,6.57
2019-03-26T08:33:28.583Z,8.93
2019-03-26T08:35:58.738Z,6.50
2019-03-26T08:38:28.969Z,6.23
2019-03-26T08:40:59.324Z,4.20
2019-03-26T08:43:30.022Z,9.87
2019-03-26T08:46:00.697Z,4.63
2019-03-26T08:48:31.194Z,7.83
2019-03-26T08:51:01.724Z,6.00
2019-03-26T08:53:32.302Z,7.77
2019-03-26T08:56:03.501Z,9.90
2019-03-26T08:58:33.952Z,5.83
2019-03-26T09:01:04.359Z,10.33
2019-03-26T09:03:35.039Z,10.63
2019-03-26T09:06:06.101Z,6.60
2019-03-26T09:08:37.045Z,6.60
2019-03-26T09:11:08.081Z,7.27
2019-03-26T09:13:39.094Z,5.83
2019-03-26T09:16:10.845Z,6.10
2019-03-26T09:18:41.546Z,8.90
2019-03-26T09:21:12.118Z,5.90
2019-03-26T09:23:42.504Z,9.03
2019-03-26T09:26:13.179Z,5.60
2019-03-26T09:28:43.616Z,4.03
2019-03-26T09:31:14.117Z,3.80
2019-03-26T09:33:44.648Z,2.97
2019-03-26T09:36:15.265Z,5.87
2019-03-26T09:38:45.617Z,8.00
2019-03-26T09:41:16.233Z,3.90
2019-03-26T09:43:46.670Z,4.63
2019-03-26T09:46:17.332Z,9.90
2019-03-26T09:48:48.347Z,5.10
2019-03-26T09:51:18.706Z,6.43
2019-03-26T09:53:50.162Z,6.27
2019-03-26T09:56:28.501Z,5.50
2019-03-26T09:58:52.803Z,7.00
2019-03-26T10:01:23.363Z,5.70
2019-03-26T10:03:53.804Z,2.80
2019-03-26T10:06:24.413Z,6.20
2019-03-26T10:08:54.906Z,7.50
2019-03-26T10:11:25.369Z,9.00
2019-03-26T10:13:55.567Z,5.43
2019-03-26T10:16:26.846Z,6.70
2019-03-26T10:18:57.397Z,4.37
2019-03-26T10:21:28.616Z,7.73
2019-03-26T10:23:59.503Z,6.60
2019-03-26T10:26:30.004Z,9.53
2019-03-26T10:29:15.077Z,10.80
2019-03-26T10:31:32.606Z,4.37
2019-03-26T10:34:02.920Z,6.97
2019-03-26T10:36:33.630Z,6.27
2019-03-26T10:39:06.019Z,7.37
2019-03-26T10:41:37.137Z,6.97
2019-03-26T10:44:07.746Z,5.13
2019-03-26T10:46:38.939Z,8.43
2019-03-26T10:49:10.001Z,8.50
2019-03-26T10:51:40.778Z,5.07
2019-03-26T10:54:11.817Z,6.67
2019-03-26T10:56:42.770Z,5.57
2019-03-26T10:59:13.501Z,5.57
2019-03-26T11:01:44.281Z,3.87
2019-03-26T11:04:15.146Z,4.00
2019-03-26T11:06:46.854Z,7.57
2019-03-26T11:09:24.147Z,10.77
2019-03-26T11:11:50.193Z,6.90
2019-03-26T11:14:20.704Z,4.83
2019-03-26T11:16:51.201Z,3.70
2019-03-26T11:19:21.784Z,5.87
2019-03-26T11:21:52.185Z,3.60
2019-03-26T11:24:22.636Z,4.60
2019-03-26T11:26:53.235Z,4.73
2019-03-26T11:29:24.185Z,3.90
2019-03-26T11:31:54.842Z,3.30
2019-03-26T11:34:25.818Z,3.43
2019-03-26T11:36:56.398Z,2.33
2019-03-26T11:39:32.545Z,3.30
2019-03-26T11:41:59.055Z,4.80
2019-03-26T11:44:32.787Z,2.50
2019-03-26T11:47:03.157Z,4.43
2019-03-26T11:49:34.065Z,6.40
2019-03-26T11:52:04.607Z,3.37
2019-03-26T11:54:35.633Z,6.90
2019-03-26T11:57:06.074Z,5.77
2019-03-26T11:59:36.586Z,3.40
2019-03-26T12:02:08.439Z,6.13
2019-03-26T12:04:38.661Z,3.60
2019-03-26T12:07:08.954Z,6.40
2019-03-26T12:09:46.145Z,6.83
2019-03-26T12:12:11.441Z,4.70
2019-03-26T12:14:42.152Z,3.77
2019-03-26T12:17:14.889Z,6.30
2019-03-26T12:19:44.736Z,4.87
2019-03-26T12:22:15.697Z,4.23
2019-03-26T12:24:46.220Z,5.03
2019-03-26T12:27:16.758Z,3.40
2019-03-26T12:29:46.975Z,3.73
2019-03-26T12:32:17.266Z,2.20
2019-03-26T12:34:47.565Z,2.20
2019-03-26T12:37:17.836Z,2.40
2019-03-26T12:39:58.926Z,3.20
2019-03-26T12:42:20.325Z,4.87
2019-03-26T12:44:50.640Z,3.30
2019-03-26T12:47:20.883Z,2.07
2019-03-26T12:49:51.212Z,3.03
2019-03-26T12:52:21.612Z,2.90
2019-03-26T12:54:52.236Z,2.90
2019-03-26T12:57:22.676Z,2.20
2019-03-26T12:59:52.999Z,3.90
2019-03-26T13:02:23.253Z,1.47
2019-03-26T13:04:53.634Z,3.00
2019-03-26T13:07:24.156Z,2.57
2019-03-26T13:09:54.481Z,2.93
2019-03-26T13:12:24.842Z,1.90
2019-03-26T13:14:55.274Z,3.57
2019-03-26T13:17:25.746Z,3.23
2019-03-26T13:19:56.189Z,2.30
2019-03-26T13:22:26.631Z,2.93
2019-03-26T13:24:56.908Z,4.70
2019-03-26T13:27:27.311Z,2.27
2019-03-26T13:29:57.521Z,1.80
2019-03-26T13:32:28.449Z,5.30
2019-03-26T13:34:59.093Z,3.73
2019-03-26T13:37:32.232Z,3.33
2019-03-26T13:40:02.390Z,3.30
2019-03-26T13:42:35.342Z,5.50
2019-03-26T13:45:05.908Z,5.40
2019-03-26T13:47:36.608Z,7.03
2019-03-26T13:50:07.101Z,3.77
2019-03-26T13:52:37.445Z,3.33
2019-03-26T13:55:08.975Z,3.23
2019-03-26T13:57:39.286Z,4.47
2019-03-26T14:00:10.371Z,5.57
2019-03-26T14:02:40.710Z,4.00
2019-03-26T14:05:24.986Z,4.80
2019-03-26T14:07:55.350Z,4.10
2019-03-26T14:10:25.842Z,5.50
2019-03-26T14:12:56.169Z,4.30
2019-03-26T14:15:26.639Z,6.63
2019-03-26T14:17:57.470Z,4.20
2019-03-26T14:20:27.935Z,4.37
2019-03-26T14:22:58.397Z,8.20
2019-03-26T14:25:29.098Z,7.50
2019-03-26T14:28:00.105Z,3.73
2019-03-26T14:30:45.904Z,3.57
2019-03-26T14:33:16.351Z,5.80
2019-03-26T14:35:47.379Z,2.13
2019-03-26T14:38:18.162Z,3.20
2019-03-26T14:40:54.688Z,2.80
2019-03-26T14:43:20.924Z,2.50
2019-03-26T14:45:51.407Z,4.17
2019-03-26T14:48:21.751Z,4.20
2019-03-26T14:50:52.530Z,2.60
2019-03-26T14:53:22.987Z,6.27
2019-03-26T14:55:53.390Z,9.10
2019-03-26T14:58:24.222Z,5.60
2019-03-26T15:00:55.765Z,4.63
2019-03-26T15:03:26.098Z,4.57
2019-03-26T15:05:56.516Z,2.93
2019-03-26T15:08:26.984Z,5.43
2019-03-26T15:11:07.592Z,5.20
2019-03-26T15:13:29.049Z,4.10
2019-03-26T15:15:59.337Z,5.27
2019-03-26T15:18:29.872Z,4.43
2019-03-26T15:21:00.309Z,10.13
2019-03-26T15:23:30.802Z,3.83
2019-03-26T15:26:01.212Z,5.30
2019-03-26T15:28:31.458Z,4.67
2019-03-26T15:31:01.689Z,3.43
2019-03-26T15:33:33.940Z,2.93
2019-03-26T15:36:04.563Z,2.27
2019-03-26T15:38:35.147Z,1.43
2019-03-26T15:41:05.390Z,1.97
2019-03-26T15:43:35.711Z,0.93
2019-03-26T15:46:06.062Z,2.80
2019-03-26T15:48:36.701Z,1.20
2019-03-26T15:51:07.903Z,1.57
2019-03-26T15:53:38.336Z,1.67
2019-03-26T15:56:08.528Z,1.27
2019-03-26T15:58:38.865Z,0.53
2019-03-26T16:01:09.280Z,1.37
2019-03-26T16:03:39.557Z,2.03
2019-03-26T16:06:09.976Z,2.70
2019-03-26T16:08:40.285Z,2.40
2019-03-26T16:11:10.611Z,7.00
2019-03-26T16:13:40.853Z,2.07
2019-03-26T16:16:10.993Z,1.90
2019-03-26T16:18:43.593Z,3.77
2019-03-26T16:21:13.763Z,2.40
2019-03-26T16:23:43.969Z,1.70
2019-03-26T16:26:14.930Z,1.00
2019-03-26T16:28:45.085Z,1.50
2019-03-26T16:31:15.333Z,1.17
2019-03-26T16:33:45.441Z,1.27
2019-03-26T16:36:16.555Z,6.37
2019-03-26T16:38:46.858Z,0.80
2019-03-26T16:41:17.190Z,1.63
2019-03-26T16:43:47.352Z,1.17
2019-03-26T16:46:18.083Z,2.03
2019-03-26T16:48:48.874Z,1.43
2019-03-26T16:51:19.143Z,1.80
2019-03-26T16:53:49.884Z,2.40
2019-03-26T16:56:20.504Z,2.50
2019-03-26T16:58:52.550Z,2.20
2019-03-26T17:01:23.000Z,2.00
2019-03-26T17:03:53.434Z,3.97
2019-03-26T17:06:23.984Z,2.60
2019-03-26T17:08:54.506Z,3.07
2019-03-26T17:11:25.061Z,2.70
2019-03-26T17:13:55.934Z,3.00
2019-03-26T17:16:26.397Z,3.97
2019-03-26T17:18:57.286Z,5.30
2019-03-26T17:21:27.959Z,5.87
2019-03-26T17:23:58.379Z,5.43
2019-03-26T17:26:29.039Z,6.73
2019-03-26T17:28:59.820Z,6.60
2019-03-26T17:31:30.568Z,7.17
2019-03-26T17:34:01.078Z,6.37
2019-03-26T17:36:31.474Z,6.00
2019-03-26T17:39:02.048Z,4.50
2019-03-26T17:41:32.653Z,4.50
2019-03-26T17:44:03.139Z,6.70
2019-03-26T17:46:33.260Z,4.20
2019-03-26T17:49:03.512Z,7.20
2019-03-26T17:51:33.687Z,5.30
2019-03-26T17:54:03.969Z,4.70
2019-03-26T17:56:34.175Z,4.00
2019-03-26T17:59:05.234Z,5.40
2019-03-26T18:01:35.401Z,3.60
2019-03-26T18:04:06.697Z,4.20
2019-03-26T18:06:36.973Z,4.73
2019-03-26T18:09:08.037Z,3.63
2019-03-26T18:11:38.226Z,5.30
2019-03-26T18:14:08.563Z,6.50
2019-03-26T18:16:38.833Z,3.77
2019-03-26T18:19:12.463Z,4.80
2019-03-26T18:21:51.290Z,4.27
2019-03-26T18:24:14.805Z,4.33
2019-03-26T18:26:45.078Z,4.70
2019-03-26T18:29:15.349Z,5.10
2019-03-26T18:31:45.538Z,4.67
2019-03-26T18:34:15.882Z,4.80
2019-03-26T18:36:46.148Z,6.07
2019-03-26T18:39:17.170Z,5.90
2019-03-26T18:41:47.645Z,7.83
2019-03-26T18:44:18.029Z,6.80
2019-03-26T18:46:48.277Z,8.67
2019-03-26T18:49:18.885Z,6.20
2019-03-26T18:51:49.279Z,5.20
2019-03-26T18:54:19.635Z,7.03
2019-03-26T18:56:50.407Z,7.33
2019-03-26T18:59:20.697Z,7.70
2019-03-26T19:01:51.067Z,8.87
2019-03-26T19:04:21.661Z,10.33
2019-03-26T19:06:51.918Z,14.10
2019-03-26T19:09:22.205Z,10.23
2019-03-26T19:11:52.686Z,10.07
2019-03-26T19:14:22.919Z,10.00
2019-03-26T19:16:53.167Z,7.83
2019-03-26T19:19:23.497Z,10.50
2019-03-26T19:21:53.750Z,8.33
2019-03-26T19:24:24.816Z,8.47
2019-03-26T19:26:55.129Z,17.97
2019-03-26T19:29:25.608Z,11.03
2019-03-26T19:31:56.744Z,19.43
2019-03-26T19:34:27.691Z,12.57
2019-03-26T19:36:57.985Z,13.17
2019-03-26T19:39:28.172Z,12.13
2019-03-26T19:41:58.504Z,14.33
2019-03-26T19:44:30.108Z,13.13
2019-03-26T19:47:00.339Z,11.10
2019-03-26T19:49:30.582Z,19.10
2019-03-26T19:52:01.135Z,12.20
2019-03-26T19:54:31.278Z,15.17
2019-03-26T19:57:03.741Z,11.83
2019-03-26T19:59:33.953Z,10.80
2019-03-26T20:02:04.328Z,17.43
2019-03-26T20:04:34.780Z,9.87
2019-03-26T20:07:05.105Z,18.93
2019-03-26T20:09:38.153Z,11.43
2019-03-26T20:12:08.539Z,12.10
2019-03-26T20:14:39.037Z,10.90
2019-03-26T20:17:09.564Z,10.77
2019-03-26T20:19:40.017Z,15.67
2019-03-26T20:22:10.474Z,14.30
2019-03-26T20:24:41.262Z,10.77
2019-03-26T20:27:11.965Z,13.80
2019-03-26T20:29:43.962Z,8.57
2019-03-26T20:32:15.092Z,17.33
2019-03-26T20:34:45.942Z,12.27
2019-03-26T20:37:16.912Z,14.73
2019-03-26T20:39:47.690Z,15.30
2019-03-26T20:42:18.153Z,10.90
2019-03-26T20:44:49.382Z,13.90
2019-03-26T20:47:22.398Z,14.77
2019-03-26T20:49:53.455Z,14.30
2019-03-26T20:52:24.663Z,11.27
2019-03-26T20:54:55.534Z,15.97
2019-03-26T20:57:26.571Z,12.10
2019-03-26T20:59:57.129Z,20.43
2019-03-26T21:02:28.036Z,19.77
2019-03-26T21:04:59.869Z,16.67
2019-03-26T21:07:30.684Z,13.30
2019-03-26T21:10:03.827Z,11.17
2019-03-26T21:12:34.441Z,17.10
2019-03-26T21:15:10.855Z,16.57
2019-03-26T21:17:41.180Z,11.30
2019-03-26T21:20:11.874Z,9.80
2019-03-26T21:22:42.045Z,10.47
2019-03-26T21:25:12.345Z,11.53
2019-03-26T21:27:47.601Z,8.53
2019-03-26T21:30:17.963Z,9.97
2019-03-26T21:32:48.539Z,11.37
2019-03-26T21:35:28.576Z,16.10
2019-03-26T21:37:57.290Z,13.10
2019-03-26T21:40:28.770Z,15.07
2019-03-26T21:42:58.909Z,16.03
2019-03-26T21:45:38.415Z,14.63
2019-03-26T21:48:08.911Z,18.20
2019-03-26T21:50:39.435Z,16.83
2019-03-26T21:53:13.104Z,14.53
2019-03-26T21:55:43.342Z,12.90
2019-03-26T21:58:15.741Z,15.07
2019-03-26T22:00:49.555Z,11.00
2019-03-26T22:03:20.105Z,10.50
2019-03-26T22:05:51.383Z,14.00
2019-03-26T22:08:22.927Z,17.43
2019-03-26T22:10:53.234Z,15.20
2019-03-26T22:13:23.859Z,13.60
2019-03-26T22:15:54.171Z,12.90
2019-03-26T22:18:24.560Z,11.53
2019-03-26T22:20:54.760Z,12.30
2019-03-26T22:23:25.017Z,16.67
2019-03-26T22:26:02.756Z,9.37
2019-03-26T22:28:32.930Z,12.57
2019-03-26T22:31:03.403Z,11.20
2019-03-26T22:33:34.056Z,10.13
2019-03-26T22:36:04.692Z,11.57
2019-03-26T22:38:36.281Z,12.87
2019-03-26T22:41:06.930Z,13.70
2019-03-26T22:43:38.440Z,8.80
2019-03-26T22:46:08.760Z,11.97
2019-03-26T22:48:40.498Z,11.57
2019-03-26T22:51:10.968Z,12.97
2019-03-26T22:53:41.116Z,10.30
2019-03-26T22:56:11.422Z,19.77
2019-03-26T22:58:42.024Z,14.17
2019-03-26T23:01:12.448Z,14.47
2019-03-26T23:03:43.210Z,9.53
2019-03-26T23:06:13.854Z,9.87
2019-03-26T23:08:44.140Z,9.63
2019-03-26T23:11:14.895Z,10.63
2019-03-26T23:13:46.249Z,14.23
2019-03-26T23:16:19.532Z,10.43
2019-03-26T23:18:50.949Z,9.00
2019-03-26T23:21:21.508Z,11.43
2019-03-26T23:23:52.204Z,7.20
2019-03-26T23:26:22.558Z,11.63
2019-03-26T23:28:54.513Z,7.63
2019-03-26T23:31:25.643Z,5.90
2019-03-26T23:33:56.338Z,8.13
2019-03-26T23:36:26.676Z,7.63
2019-03-26T23:38:58.555Z,11.43
2019-03-26T23:41:31.055Z,8.60
2019-03-26T23:44:01.418Z,8.60
2019-03-26T23:46:31.617Z,13.63
2019-03-26T23:49:01.827Z,10.93
2019-03-26T23:51:32.286Z,9.30
2019-03-26T23:54:02.679Z,15.77
2019-03-26T23:56:32.842Z,12.17
2019-03-26T23:59:03.024Z,15.10
